Grottoes, Virginia
Current Conditions -  °F | °C
As of 3:55 AM on Wednesday 22 Oct 2014 (Local Time) from KSHD Reporting Station
Overcast Overcast  
Wind Chill: 51°   Ceiling: 5500
Heat Index: 51°   Visibility: 10mi
Dew Point: 41°   Wind: 6mph
Humidity: 68%   Direction: 350°N
Pressure: 29.95"   Gusts: NA
Location:  38.27°N, 78.83°W
Report Text: KSHD 220755Z AUTO 35005KT 10SM SCT046 OVC055 11/05 A2995 RMK AO2 T01070051
Loading
Personal Weather Stations






























Interactive Weather Map
Tropical Storm Tracking
New forecast layout! Learn more

10-Day Weather Forecast

Advertisements
Track Severe Weather on mobile